sensor_id;sensor_type;location;lat;lon;timestamp;P1;durP1;ratioP1;P2;durP2;ratioP2
20449;SDS011;10384;51.940;8.432;2022-08-19T00:00:03;10.30;;;3.77;;
20449;SDS011;10384;51.940;8.432;2022-08-19T00:02:30;10.83;;;4.23;;
20449;SDS011;10384;51.940;8.432;2022-08-19T00:04:56;6.63;;;4.00;;
20449;SDS011;10384;51.940;8.432;2022-08-19T00:07:22;6.43;;;3.70;;
20449;SDS011;10384;51.940;8.432;2022-08-19T00:09:47;8.73;;;4.03;;
20449;SDS011;10384;51.940;8.432;2022-08-19T00:12:13;6.13;;;3.20;;
20449;SDS011;10384;51.940;8.432;2022-08-19T00:14:40;6.30;;;3.93;;
20449;SDS011;10384;51.940;8.432;2022-08-19T00:17:07;9.13;;;3.73;;
20449;SDS011;10384;51.940;8.432;2022-08-19T00:19:34;7.27;;;4.03;;
20449;SDS011;10384;51.940;8.432;2022-08-19T00:22:00;11.20;;;4.30;;
20449;SDS011;10384;51.940;8.432;2022-08-19T00:24:27;6.87;;;3.50;;
20449;SDS011;10384;51.940;8.432;2022-08-19T00:26:53;7.77;;;3.30;;
20449;SDS011;10384;51.940;8.432;2022-08-19T00:29:20;6.03;;;3.43;;
20449;SDS011;10384;51.940;8.432;2022-08-19T00:31:47;7.83;;;3.70;;
20449;SDS011;10384;51.940;8.432;2022-08-19T00:34:13;6.67;;;3.63;;
20449;SDS011;10384;51.940;8.432;2022-08-19T00:36:40;6.27;;;3.67;;
20449;SDS011;10384;51.940;8.432;2022-08-19T00:39:06;8.33;;;3.60;;
20449;SDS011;10384;51.940;8.432;2022-08-19T00:41:32;7.17;;;3.40;;
20449;SDS011;10384;51.940;8.432;2022-08-19T00:44:03;5.43;;;3.07;;
20449;SDS011;10384;51.940;8.432;2022-08-19T00:46:29;9.33;;;3.90;;
20449;SDS011;10384;51.940;8.432;2022-08-19T00:48:56;9.97;;;5.07;;
20449;SDS011;10384;51.940;8.432;2022-08-19T00:51:24;12.97;;;4.30;;
20449;SDS011;10384;51.940;8.432;2022-08-19T00:53:51;10.00;;;4.30;;
20449;SDS011;10384;51.940;8.432;2022-08-19T00:56:18;8.33;;;3.67;;
20449;SDS011;10384;51.940;8.432;2022-08-19T00:58:44;8.70;;;3.70;;
20449;SDS011;10384;51.940;8.432;2022-08-19T01:01:10;8.23;;;4.00;;
20449;SDS011;10384;51.940;8.432;2022-08-19T01:03:36;7.93;;;3.87;;
20449;SDS011;10384;51.940;8.432;2022-08-19T01:06:02;8.10;;;3.77;;
20449;SDS011;10384;51.940;8.432;2022-08-19T01:08:28;7.33;;;3.43;;
20449;SDS011;10384;51.940;8.432;2022-08-19T01:10:55;5.53;;;3.60;;
20449;SDS011;10384;51.940;8.432;2022-08-19T01:13:23;8.67;;;4.17;;
20449;SDS011;10384;51.940;8.432;2022-08-19T01:15:54;8.50;;;3.50;;
20449;SDS011;10384;51.940;8.432;2022-08-19T01:18:20;7.63;;;3.90;;
20449;SDS011;10384;51.940;8.432;2022-08-19T01:20:47;9.60;;;3.73;;
20449;SDS011;10384;51.940;8.432;2022-08-19T01:23:13;10.13;;;4.17;;
20449;SDS011;10384;51.940;8.432;2022-08-19T01:25:44;6.40;;;4.37;;
20449;SDS011;10384;51.940;8.432;2022-08-19T01:28:15;7.20;;;4.40;;
20449;SDS011;10384;51.940;8.432;2022-08-19T01:30:42;10.63;;;5.57;;
20449;SDS011;10384;51.940;8.432;2022-08-19T01:33:08;15.67;;;5.97;;
20449;SDS011;10384;51.940;8.432;2022-08-19T01:35:35;11.53;;;4.50;;
20449;SDS011;10384;51.940;8.432;2022-08-19T01:38:02;9.87;;;4.77;;
20449;SDS011;10384;51.940;8.432;2022-08-19T01:40:32;9.87;;;4.70;;
20449;SDS011;10384;51.940;8.432;2022-08-19T01:42:58;9.60;;;4.20;;
20449;SDS011;10384;51.940;8.432;2022-08-19T01:45:25;8.60;;;4.67;;
20449;SDS011;10384;51.940;8.432;2022-08-19T01:47:52;12.33;;;4.80;;
20449;SDS011;10384;51.940;8.432;2022-08-19T01:50:18;8.47;;;4.40;;
20449;SDS011;10384;51.940;8.432;2022-08-19T01:52:45;10.47;;;4.60;;
20449;SDS011;10384;51.940;8.432;2022-08-19T01:55:12;11.03;;;5.30;;
20449;SDS011;10384;51.940;8.432;2022-08-19T01:57:39;10.00;;;5.40;;
20449;SDS011;10384;51.940;8.432;2022-08-19T02:00:08;11.90;;;5.13;;
20449;SDS011;10384;51.940;8.432;2022-08-19T02:02:35;14.80;;;5.67;;
20449;SDS011;10384;51.940;8.432;2022-08-19T02:05:01;11.43;;;4.97;;
20449;SDS011;10384;51.940;8.432;2022-08-19T02:07:27;10.83;;;4.67;;
20449;SDS011;10384;51.940;8.432;2022-08-19T02:09:54;8.10;;;4.63;;
20449;SDS011;10384;51.940;8.432;2022-08-19T02:12:20;7.60;;;4.60;;
20449;SDS011;10384;51.940;8.432;2022-08-19T02:14:46;9.77;;;4.57;;
20449;SDS011;10384;51.940;8.432;2022-08-19T02:17:12;9.70;;;4.50;;
20449;SDS011;10384;51.940;8.432;2022-08-19T02:19:38;12.50;;;4.37;;
20449;SDS011;10384;51.940;8.432;2022-08-19T02:22:05;8.03;;;4.60;;
20449;SDS011;10384;51.940;8.432;2022-08-19T02:24:31;7.37;;;4.23;;
20449;SDS011;10384;51.940;8.432;2022-08-19T02:26:57;8.73;;;4.77;;
20449;SDS011;10384;51.940;8.432;2022-08-19T02:29:23;7.53;;;4.73;;
20449;SDS011;10384;51.940;8.432;2022-08-19T02:31:49;8.70;;;5.30;;
20449;SDS011;10384;51.940;8.432;2022-08-19T02:34:16;7.70;;;5.50;;
20449;SDS011;10384;51.940;8.432;2022-08-19T02:36:43;9.40;;;5.20;;
20449;SDS011;10384;51.940;8.432;2022-08-19T02:39:09;9.47;;;5.10;;
20449;SDS011;10384;51.940;8.432;2022-08-19T02:41:35;8.23;;;4.97;;
20449;SDS011;10384;51.940;8.432;2022-08-19T02:44:02;8.90;;;5.27;;
20449;SDS011;10384;51.940;8.432;2022-08-19T02:46:30;10.97;;;4.60;;
20449;SDS011;10384;51.940;8.432;2022-08-19T02:48:57;8.30;;;4.57;;
20449;SDS011;10384;51.940;8.432;2022-08-19T02:51:26;7.50;;;4.40;;
20449;SDS011;10384;51.940;8.432;2022-08-19T02:53:53;9.90;;;4.77;;
20449;SDS011;10384;51.940;8.432;2022-08-19T02:56:19;7.03;;;4.50;;
20449;SDS011;10384;51.940;8.432;2022-08-19T02:58:45;6.23;;;4.43;;
20449;SDS011;10384;51.940;8.432;2022-08-19T03:01:18;6.87;;;4.47;;
20449;SDS011;10384;51.940;8.432;2022-08-19T03:03:45;10.57;;;4.80;;
20449;SDS011;10384;51.940;8.432;2022-08-19T03:06:13;11.13;;;4.67;;
20449;SDS011;10384;51.940;8.432;2022-08-19T03:08:40;8.33;;;4.70;;
20449;SDS011;10384;51.940;8.432;2022-08-19T03:11:06;10.57;;;4.97;;
20449;SDS011;10384;51.940;8.432;2022-08-19T03:13:32;10.60;;;4.67;;
20449;SDS011;10384;51.940;8.432;2022-08-19T03:15:58;10.33;;;4.60;;
20449;SDS011;10384;51.940;8.432;2022-08-19T03:18:24;7.83;;;5.00;;
20449;SDS011;10384;51.940;8.432;2022-08-19T03:20:50;8.30;;;5.17;;
20449;SDS011;10384;51.940;8.432;2022-08-19T03:23:18;9.53;;;5.00;;
20449;SDS011;10384;51.940;8.432;2022-08-19T03:25:46;8.70;;;4.23;;
20449;SDS011;10384;51.940;8.432;2022-08-19T03:28:13;10.83;;;5.07;;
20449;SDS011;10384;51.940;8.432;2022-08-19T03:30:40;8.33;;;4.60;;
20449;SDS011;10384;51.940;8.432;2022-08-19T03:33:07;6.97;;;4.47;;
20449;SDS011;10384;51.940;8.432;2022-08-19T03:35:33;8.03;;;4.47;;
20449;SDS011;10384;51.940;8.432;2022-08-19T03:38:01;9.90;;;4.67;;
20449;SDS011;10384;51.940;8.432;2022-08-19T03:40:27;8.87;;;4.20;;
20449;SDS011;10384;51.940;8.432;2022-08-19T03:42:55;9.97;;;5.30;;
20449;SDS011;10384;51.940;8.432;2022-08-19T03:45:21;10.33;;;4.73;;
20449;SDS011;10384;51.940;8.432;2022-08-19T03:47:47;11.80;;;4.70;;
20449;SDS011;10384;51.940;8.432;2022-08-19T03:50:13;11.77;;;5.67;;
20449;SDS011;10384;51.940;8.432;2022-08-19T03:52:39;7.83;;;4.93;;
20449;SDS011;10384;51.940;8.432;2022-08-19T03:55:05;11.30;;;5.00;;
20449;SDS011;10384;51.940;8.432;2022-08-19T03:57:32;10.30;;;6.00;;
20449;SDS011;10384;51.940;8.432;2022-08-19T03:59:59;10.37;;;5.80;;
20449;SDS011;10384;51.940;8.432;2022-08-19T04:02:25;10.13;;;5.33;;
20449;SDS011;10384;51.940;8.432;2022-08-19T04:04:52;9.27;;;4.73;;
20449;SDS011;10384;51.940;8.432;2022-08-19T04:07:19;10.27;;;5.67;;
20449;SDS011;10384;51.940;8.432;2022-08-19T04:09:46;10.77;;;5.70;;
20449;SDS011;10384;51.940;8.432;2022-08-19T04:12:12;11.07;;;5.80;;
20449;SDS011;10384;51.940;8.432;2022-08-19T04:14:38;13.77;;;5.50;;
20449;SDS011;10384;51.940;8.432;2022-08-19T04:17:04;12.83;;;5.93;;
20449;SDS011;10384;51.940;8.432;2022-08-19T04:19:30;9.83;;;5.67;;
20449;SDS011;10384;51.940;8.432;2022-08-19T04:21:56;11.63;;;5.13;;
20449;SDS011;10384;51.940;8.432;2022-08-19T04:24:23;11.50;;;5.40;;
20449;SDS011;10384;51.940;8.432;2022-08-19T04:26:50;12.87;;;5.70;;
20449;SDS011;10384;51.940;8.432;2022-08-19T04:29:23;11.67;;;5.47;;
20449;SDS011;10384;51.940;8.432;2022-08-19T04:31:50;13.00;;;6.17;;
20449;SDS011;10384;51.940;8.432;2022-08-19T04:34:17;11.73;;;5.80;;
20449;SDS011;10384;51.940;8.432;2022-08-19T04:36:47;11.73;;;6.10;;
20449;SDS011;10384;51.940;8.432;2022-08-19T04:39:16;11.83;;;6.50;;
20449;SDS011;10384;51.940;8.432;2022-08-19T04:41:43;13.40;;;6.43;;
20449;SDS011;10384;51.940;8.432;2022-08-19T04:44:29;11.53;;;5.80;;
20449;SDS011;10384;51.940;8.432;2022-08-19T04:46:55;12.53;;;6.63;;
20449;SDS011;10384;51.940;8.432;2022-08-19T04:49:21;12.80;;;6.70;;
20449;SDS011;10384;51.940;8.432;2022-08-19T04:51:48;15.03;;;6.93;;
20449;SDS011;10384;51.940;8.432;2022-08-19T04:54:15;15.10;;;6.70;;
20449;SDS011;10384;51.940;8.432;2022-08-19T04:56:41;12.63;;;6.23;;
20449;SDS011;10384;51.940;8.432;2022-08-19T04:59:07;15.27;;;6.20;;
20449;SDS011;10384;51.940;8.432;2022-08-19T05:01:34;11.37;;;5.73;;
20449;SDS011;10384;51.940;8.432;2022-08-19T05:04:02;12.93;;;6.20;;
20449;SDS011;10384;51.940;8.432;2022-08-19T05:06:29;13.87;;;6.60;;
20449;SDS011;10384;51.940;8.432;2022-08-19T05:08:56;12.53;;;6.57;;
20449;SDS011;10384;51.940;8.432;2022-08-19T05:11:23;12.07;;;6.57;;
20449;SDS011;10384;51.940;8.432;2022-08-19T05:13:51;13.70;;;6.67;;
20449;SDS011;10384;51.940;8.432;2022-08-19T05:16:18;14.27;;;6.83;;
20449;SDS011;10384;51.940;8.432;2022-08-19T05:18:44;17.53;;;7.63;;
20449;SDS011;10384;51.940;8.432;2022-08-19T05:21:29;18.63;;;7.03;;
20449;SDS011;10384;51.940;8.432;2022-08-19T05:24:14;18.90;;;7.40;;
20449;SDS011;10384;51.940;8.432;2022-08-19T05:26:42;16.27;;;7.50;;
20449;SDS011;10384;51.940;8.432;2022-08-19T05:29:10;15.00;;;7.50;;
20449;SDS011;10384;51.940;8.432;2022-08-19T05:31:36;17.67;;;7.67;;
20449;SDS011;10384;51.940;8.432;2022-08-19T05:34:06;15.77;;;7.27;;
20449;SDS011;10384;51.940;8.432;2022-08-19T05:36:34;17.47;;;7.27;;
20449;SDS011;10384;51.940;8.432;2022-08-19T05:39:00;15.77;;;7.57;;
20449;SDS011;10384;51.940;8.432;2022-08-19T05:41:26;16.27;;;7.13;;
20449;SDS011;10384;51.940;8.432;2022-08-19T05:43:56;14.70;;;7.30;;
20449;SDS011;10384;51.940;8.432;2022-08-19T05:46:22;16.47;;;7.33;;
20449;SDS011;10384;51.940;8.432;2022-08-19T05:48:48;18.40;;;7.70;;
20449;SDS011;10384;51.940;8.432;2022-08-19T05:51:14;18.80;;;7.83;;
20449;SDS011;10384;51.940;8.432;2022-08-19T05:53:41;18.33;;;8.30;;
20449;SDS011;10384;51.940;8.432;2022-08-19T05:56:08;22.20;;;7.70;;
20449;SDS011;10384;51.940;8.432;2022-08-19T05:58:35;19.30;;;7.60;;
20449;SDS011;10384;51.940;8.432;2022-08-19T06:01:02;17.17;;;7.43;;
20449;SDS011;10384;51.940;8.432;2022-08-19T06:03:33;14.30;;;7.40;;
20449;SDS011;10384;51.940;8.432;2022-08-19T06:06:00;15.20;;;7.47;;
20449;SDS011;10384;51.940;8.432;2022-08-19T06:08:27;15.37;;;7.93;;
20449;SDS011;10384;51.940;8.432;2022-08-19T06:10:53;17.93;;;8.10;;
20449;SDS011;10384;51.940;8.432;2022-08-19T06:13:19;15.43;;;7.57;;
20449;SDS011;10384;51.940;8.432;2022-08-19T06:15:46;18.17;;;7.87;;
20449;SDS011;10384;51.940;8.432;2022-08-19T06:18:13;16.70;;;7.10;;
20449;SDS011;10384;51.940;8.432;2022-08-19T06:20:39;16.80;;;7.50;;
20449;SDS011;10384;51.940;8.432;2022-08-19T06:23:06;18.00;;;8.40;;
20449;SDS011;10384;51.940;8.432;2022-08-19T06:25:32;23.60;;;10.53;;
20449;SDS011;10384;51.940;8.432;2022-08-19T06:27:57;20.47;;;9.93;;
20449;SDS011;10384;51.940;8.432;2022-08-19T06:30:23;20.93;;;9.93;;
20449;SDS011;10384;51.940;8.432;2022-08-19T06:32:49;22.03;;;9.97;;
20449;SDS011;10384;51.940;8.432;2022-08-19T06:35:15;22.63;;;12.13;;
20449;SDS011;10384;51.940;8.432;2022-08-19T06:37:41;28.33;;;13.77;;
20449;SDS011;10384;51.940;8.432;2022-08-19T06:40:08;25.57;;;13.50;;
20449;SDS011;10384;51.940;8.432;2022-08-19T06:42:36;23.13;;;10.83;;
20449;SDS011;10384;51.940;8.432;2022-08-19T06:45:03;21.87;;;9.40;;
20449;SDS011;10384;51.940;8.432;2022-08-19T06:47:30;27.27;;;12.90;;
20449;SDS011;10384;51.940;8.432;2022-08-19T06:49:58;27.10;;;15.20;;
20449;SDS011;10384;51.940;8.432;2022-08-19T06:52:28;27.73;;;14.50;;
20449;SDS011;10384;51.940;8.432;2022-08-19T06:54:54;26.23;;;14.17;;
20449;SDS011;10384;51.940;8.432;2022-08-19T06:57:21;23.57;;;11.60;;
20449;SDS011;10384;51.940;8.432;2022-08-19T06:59:47;21.63;;;9.70;;
20449;SDS011;10384;51.940;8.432;2022-08-19T07:02:13;18.57;;;8.60;;
20449;SDS011;10384;51.940;8.432;2022-08-19T07:04:39;14.03;;;7.10;;
20449;SDS011;10384;51.940;8.432;2022-08-19T07:07:06;18.37;;;7.80;;
20449;SDS011;10384;51.940;8.432;2022-08-19T07:09:35;17.30;;;7.63;;
20449;SDS011;10384;51.940;8.432;2022-08-19T07:12:02;17.20;;;7.73;;
20449;SDS011;10384;51.940;8.432;2022-08-19T07:14:29;13.43;;;6.40;;
20449;SDS011;10384;51.940;8.432;2022-08-19T07:16:55;13.87;;;6.97;;
20449;SDS011;10384;51.940;8.432;2022-08-19T07:19:23;16.43;;;7.03;;
20449;SDS011;10384;51.940;8.432;2022-08-19T07:21:50;15.40;;;7.20;;
20449;SDS011;10384;51.940;8.432;2022-08-19T07:24:19;18.23;;;6.87;;
20449;SDS011;10384;51.940;8.432;2022-08-19T07:26:45;11.50;;;6.00;;
20449;SDS011;10384;51.940;8.432;2022-08-19T07:29:12;14.03;;;6.90;;
20449;SDS011;10384;51.940;8.432;2022-08-19T07:31:38;12.50;;;6.43;;
20449;SDS011;10384;51.940;8.432;2022-08-19T07:34:05;13.13;;;6.40;;
20449;SDS011;10384;51.940;8.432;2022-08-19T07:36:32;10.00;;;5.23;;
20449;SDS011;10384;51.940;8.432;2022-08-19T07:38:59;11.07;;;5.47;;
20449;SDS011;10384;51.940;8.432;2022-08-19T07:41:26;10.97;;;5.40;;
20449;SDS011;10384;51.940;8.432;2022-08-19T07:43:53;10.80;;;5.40;;
20449;SDS011;10384;51.940;8.432;2022-08-19T07:46:20;13.07;;;5.80;;
20449;SDS011;10384;51.940;8.432;2022-08-19T07:48:47;10.73;;;5.73;;
20449;SDS011;10384;51.940;8.432;2022-08-19T07:51:16;13.90;;;5.40;;
20449;SDS011;10384;51.940;8.432;2022-08-19T07:53:42;10.10;;;4.80;;
20449;SDS011;10384;51.940;8.432;2022-08-19T07:56:09;10.17;;;5.83;;
20449;SDS011;10384;51.940;8.432;2022-08-19T07:58:37;9.70;;;5.33;;
20449;SDS011;10384;51.940;8.432;2022-08-19T08:01:04;11.40;;;6.10;;
20449;SDS011;10384;51.940;8.432;2022-08-19T08:03:31;11.97;;;6.10;;
20449;SDS011;10384;51.940;8.432;2022-08-19T08:06:16;12.77;;;6.20;;
20449;SDS011;10384;51.940;8.432;2022-08-19T08:09:02;14.20;;;6.00;;
20449;SDS011;10384;51.940;8.432;2022-08-19T08:11:48;11.83;;;5.73;;
20449;SDS011;10384;51.940;8.432;2022-08-19T08:14:18;12.13;;;5.37;;
20449;SDS011;10384;51.940;8.432;2022-08-19T08:16:44;10.70;;;5.90;;
20449;SDS011;10384;51.940;8.432;2022-08-19T08:19:11;11.47;;;5.67;;
20449;SDS011;10384;51.940;8.432;2022-08-19T08:21:38;15.03;;;7.00;;
20449;SDS011;10384;51.940;8.432;2022-08-19T08:24:04;11.33;;;6.33;;
20449;SDS011;10384;51.940;8.432;2022-08-19T08:26:30;11.57;;;5.77;;
20449;SDS011;10384;51.940;8.432;2022-08-19T08:28:56;9.37;;;5.07;;
20449;SDS011;10384;51.940;8.432;2022-08-19T08:31:22;14.10;;;6.00;;
20449;SDS011;10384;51.940;8.432;2022-08-19T08:33:48;9.20;;;5.30;;
20449;SDS011;10384;51.940;8.432;2022-08-19T08:36:14;10.93;;;5.83;;
20449;SDS011;10384;51.940;8.432;2022-08-19T08:38:41;13.27;;;6.40;;
20449;SDS011;10384;51.940;8.432;2022-08-19T08:43:49;12.30;;;5.80;;
20449;SDS011;10384;51.940;8.432;2022-08-19T08:46:21;9.23;;;5.57;;
20449;SDS011;10384;51.940;8.432;2022-08-19T08:49:13;12.67;;;5.27;;
20449;SDS011;10384;51.940;8.432;2022-08-19T08:51:43;12.17;;;5.40;;
20449;SDS011;10384;51.940;8.432;2022-08-19T08:54:10;13.30;;;5.83;;
20449;SDS011;10384;51.940;8.432;2022-08-19T08:56:38;11.17;;;5.03;;
20449;SDS011;10384;51.940;8.432;2022-08-19T08:59:06;10.80;;;5.13;;
20449;SDS011;10384;51.940;8.432;2022-08-19T09:01:35;12.33;;;5.77;;
20449;SDS011;10384;51.940;8.432;2022-08-19T09:04:05;11.90;;;5.97;;
20449;SDS011;10384;51.940;8.432;2022-08-19T09:06:40;7.57;;;4.97;;
20449;SDS011;10384;51.940;8.432;2022-08-19T09:16:58;7.23;;;4.47;;
20449;SDS011;10384;51.940;8.432;2022-08-19T09:19:25;7.87;;;4.07;;
20449;SDS011;10384;51.940;8.432;2022-08-19T09:21:51;7.40;;;4.20;;
20449;SDS011;10384;51.940;8.432;2022-08-19T09:24:17;6.93;;;4.43;;
20449;SDS011;10384;51.940;8.432;2022-08-19T09:26:43;6.47;;;3.90;;
20449;SDS011;10384;51.940;8.432;2022-08-19T09:29:10;6.80;;;3.97;;
20449;SDS011;10384;51.940;8.432;2022-08-19T09:31:36;8.30;;;3.80;;
20449;SDS011;10384;51.940;8.432;2022-08-19T09:34:02;6.20;;;3.70;;
20449;SDS011;10384;51.940;8.432;2022-08-19T09:36:29;5.73;;;3.73;;
20449;SDS011;10384;51.940;8.432;2022-08-19T09:38:57;5.87;;;3.47;;
20449;SDS011;10384;51.940;8.432;2022-08-19T09:41:25;5.60;;;3.30;;
20449;SDS011;10384;51.940;8.432;2022-08-19T09:43:52;5.67;;;3.57;;
20449;SDS011;10384;51.940;8.432;2022-08-19T09:46:19;5.23;;;3.30;;
20449;SDS011;10384;51.940;8.432;2022-08-19T09:48:48;6.40;;;3.40;;
20449;SDS011;10384;51.940;8.432;2022-08-19T09:51:17;4.87;;;3.40;;
20449;SDS011;10384;51.940;8.432;2022-08-19T09:53:46;6.60;;;3.70;;
20449;SDS011;10384;51.940;8.432;2022-08-19T09:56:14;4.80;;;2.90;;
20449;SDS011;10384;51.940;8.432;2022-08-19T09:58:40;5.97;;;2.80;;
20449;SDS011;10384;51.940;8.432;2022-08-19T10:01:06;4.50;;;3.03;;
20449;SDS011;10384;51.940;8.432;2022-08-19T10:03:33;4.80;;;2.90;;
20449;SDS011;10384;51.940;8.432;2022-08-19T10:06:01;2.83;;;2.37;;
20449;SDS011;10384;51.940;8.432;2022-08-19T10:08:29;4.23;;;2.60;;
20449;SDS011;10384;51.940;8.432;2022-08-19T10:10:55;3.40;;;2.80;;
20449;SDS011;10384;51.940;8.432;2022-08-19T10:13:22;4.73;;;2.80;;
20449;SDS011;10384;51.940;8.432;2022-08-19T10:15:50;3.87;;;2.23;;
20449;SDS011;10384;51.940;8.432;2022-08-19T10:18:17;4.07;;;2.37;;
20449;SDS011;10384;51.940;8.432;2022-08-19T10:20:44;5.47;;;2.80;;
20449;SDS011;10384;51.940;8.432;2022-08-19T10:23:10;4.70;;;2.93;;
20449;SDS011;10384;51.940;8.432;2022-08-19T10:25:36;4.97;;;2.67;;
20449;SDS011;10384;51.940;8.432;2022-08-19T10:28:02;3.50;;;2.80;;
20449;SDS011;10384;51.940;8.432;2022-08-19T10:30:29;5.23;;;3.13;;
20449;SDS011;10384;51.940;8.432;2022-08-19T10:32:55;4.27;;;3.20;;
20449;SDS011;10384;51.940;8.432;2022-08-19T10:35:21;2.80;;;2.40;;
20449;SDS011;10384;51.940;8.432;2022-08-19T10:37:47;2.37;;;2.00;;
20449;SDS011;10384;51.940;8.432;2022-08-19T10:40:13;3.27;;;1.93;;
20449;SDS011;10384;51.940;8.432;2022-08-19T10:42:39;2.73;;;2.07;;
20449;SDS011;10384;51.940;8.432;2022-08-19T10:45:05;3.30;;;2.00;;
20449;SDS011;10384;51.940;8.432;2022-08-19T10:47:33;4.07;;;2.37;;
20449;SDS011;10384;51.940;8.432;2022-08-19T10:49:59;2.50;;;2.00;;
20449;SDS011;10384;51.940;8.432;2022-08-19T10:52:44;2.87;;;2.00;;
20449;SDS011;10384;51.940;8.432;2022-08-19T10:55:11;2.87;;;2.17;;
20449;SDS011;10384;51.940;8.432;2022-08-19T10:57:56;4.80;;;2.47;;
20449;SDS011;10384;51.940;8.432;2022-08-19T11:00:22;5.07;;;2.20;;
20449;SDS011;10384;51.940;8.432;2022-08-19T11:02:48;3.40;;;2.50;;
20449;SDS011;10384;51.940;8.432;2022-08-19T11:05:15;2.50;;;2.10;;
20449;SDS011;10384;51.940;8.432;2022-08-19T11:07:42;2.10;;;1.70;;
20449;SDS011;10384;51.940;8.432;2022-08-19T11:10:09;2.70;;;2.10;;
20449;SDS011;10384;51.940;8.432;2022-08-19T11:12:36;2.20;;;1.60;;
20449;SDS011;10384;51.940;8.432;2022-08-19T11:15:06;3.73;;;1.80;;
20449;SDS011;10384;51.940;8.432;2022-08-19T11:17:33;2.93;;;1.87;;
20449;SDS011;10384;51.940;8.432;2022-08-19T11:20:00;3.97;;;2.00;;
20449;SDS011;10384;51.940;8.432;2022-08-19T11:22:29;2.70;;;2.03;;
20449;SDS011;10384;51.940;8.432;2022-08-19T11:24:55;3.20;;;2.40;;
20449;SDS011;10384;51.940;8.432;2022-08-19T11:27:21;4.67;;;2.50;;
20449;SDS011;10384;51.940;8.432;2022-08-19T11:29:47;4.20;;;2.20;;
20449;SDS011;10384;51.940;8.432;2022-08-19T11:32:13;4.43;;;2.63;;
20449;SDS011;10384;51.940;8.432;2022-08-19T11:34:40;5.03;;;2.30;;
20449;SDS011;10384;51.940;8.432;2022-08-19T11:37:06;3.00;;;2.27;;
20449;SDS011;10384;51.940;8.432;2022-08-19T11:39:34;3.50;;;2.87;;
20449;SDS011;10384;51.940;8.432;2022-08-19T11:42:02;2.63;;;2.10;;
20449;SDS011;10384;51.940;8.432;2022-08-19T11:44:48;3.67;;;2.23;;
20449;SDS011;10384;51.940;8.432;2022-08-19T11:47:14;3.97;;;2.67;;
20449;SDS011;10384;51.940;8.432;2022-08-19T11:49:40;3.10;;;2.47;;
20449;SDS011;10384;51.940;8.432;2022-08-19T11:52:07;4.27;;;3.00;;
20449;SDS011;10384;51.940;8.432;2022-08-19T11:54:33;3.80;;;2.57;;
20449;SDS011;10384;51.940;8.432;2022-08-19T11:57:01;2.90;;;2.40;;
20449;SDS011;10384;51.940;8.432;2022-08-19T11:59:28;2.90;;;2.30;;
20449;SDS011;10384;51.940;8.432;2022-08-19T12:01:54;8.97;;;2.90;;
20449;SDS011;10384;51.940;8.432;2022-08-19T12:04:20;4.70;;;2.67;;
20449;SDS011;10384;51.940;8.432;2022-08-19T12:06:47;5.17;;;2.70;;
20449;SDS011;10384;51.940;8.432;2022-08-19T12:09:14;3.07;;;2.63;;
20449;SDS011;10384;51.940;8.432;2022-08-19T12:11:41;4.47;;;2.80;;
20449;SDS011;10384;51.940;8.432;2022-08-19T12:14:09;4.23;;;2.60;;
20449;SDS011;10384;51.940;8.432;2022-08-19T12:16:35;4.37;;;3.00;;
20449;SDS011;10384;51.940;8.432;2022-08-19T12:19:03;3.00;;;2.70;;
20449;SDS011;10384;51.940;8.432;2022-08-19T12:21:33;3.83;;;2.33;;
20449;SDS011;10384;51.940;8.432;2022-08-19T12:23:59;2.73;;;2.27;;
20449;SDS011;10384;51.940;8.432;2022-08-19T12:26:26;3.77;;;2.40;;
20449;SDS011;10384;51.940;8.432;2022-08-19T12:28:52;3.10;;;2.60;;
20449;SDS011;10384;51.940;8.432;2022-08-19T12:31:19;3.17;;;2.27;;
20449;SDS011;10384;51.940;8.432;2022-08-19T12:33:45;2.97;;;2.30;;
20449;SDS011;10384;51.940;8.432;2022-08-19T12:36:11;3.63;;;2.37;;
20449;SDS011;10384;51.940;8.432;2022-08-19T12:38:38;5.40;;;2.53;;
20449;SDS011;10384;51.940;8.432;2022-08-19T12:41:05;3.97;;;2.60;;
20449;SDS011;10384;51.940;8.432;2022-08-19T12:43:34;2.77;;;2.53;;
20449;SDS011;10384;51.940;8.432;2022-08-19T12:46:02;2.30;;;2.10;;
20449;SDS011;10384;51.940;8.432;2022-08-19T12:48:29;2.80;;;2.50;;
20449;SDS011;10384;51.940;8.432;2022-08-19T12:50:55;4.87;;;2.70;;
20449;SDS011;10384;51.940;8.432;2022-08-19T12:53:21;3.53;;;2.73;;
20449;SDS011;10384;51.940;8.432;2022-08-19T12:55:47;3.80;;;2.80;;
20449;SDS011;10384;51.940;8.432;2022-08-19T12:58:13;3.07;;;2.60;;
20449;SDS011;10384;51.940;8.432;2022-08-19T13:00:39;3.17;;;2.87;;
20449;SDS011;10384;51.940;8.432;2022-08-19T13:03:05;5.50;;;3.20;;
20449;SDS011;10384;51.940;8.432;2022-08-19T13:05:32;2.73;;;2.53;;
20449;SDS011;10384;51.940;8.432;2022-08-19T13:07:59;3.83;;;3.10;;
20449;SDS011;10384;51.940;8.432;2022-08-19T13:10:30;4.53;;;3.07;;
20449;SDS011;10384;51.940;8.432;2022-08-19T13:13:00;3.70;;;2.90;;
20449;SDS011;10384;51.940;8.432;2022-08-19T13:15:27;2.83;;;2.53;;
20449;SDS011;10384;51.940;8.432;2022-08-19T13:17:53;5.67;;;2.90;;
20449;SDS011;10384;51.940;8.432;2022-08-19T13:20:20;3.33;;;3.03;;
20449;SDS011;10384;51.940;8.432;2022-08-19T13:22:46;5.20;;;3.20;;
20449;SDS011;10384;51.940;8.432;2022-08-19T13:25:13;3.23;;;2.93;;
20449;SDS011;10384;51.940;8.432;2022-08-19T13:27:41;3.57;;;3.27;;
20449;SDS011;10384;51.940;8.432;2022-08-19T13:30:08;3.80;;;3.40;;
20449;SDS011;10384;51.940;8.432;2022-08-19T13:32:52;3.57;;;3.27;;
20449;SDS011;10384;51.940;8.432;2022-08-19T13:35:49;3.87;;;3.20;;
20449;SDS011;10384;51.940;8.432;2022-08-19T13:38:17;3.33;;;2.93;;
20449;SDS011;10384;51.940;8.432;2022-08-19T13:40:45;3.63;;;3.10;;
20449;SDS011;10384;51.940;8.432;2022-08-19T13:43:11;4.73;;;2.80;;
20449;SDS011;10384;51.940;8.432;2022-08-19T13:45:37;3.70;;;3.00;;
20449;SDS011;10384;51.940;8.432;2022-08-19T13:48:04;3.60;;;3.30;;
20449;SDS011;10384;51.940;8.432;2022-08-19T13:50:33;3.17;;;2.87;;
20449;SDS011;10384;51.940;8.432;2022-08-19T13:53:00;3.53;;;2.90;;
20449;SDS011;10384;51.940;8.432;2022-08-19T13:55:27;3.73;;;3.10;;
20449;SDS011;10384;51.940;8.432;2022-08-19T13:57:54;4.10;;;3.03;;
20449;SDS011;10384;51.940;8.432;2022-08-19T14:00:20;3.77;;;2.90;;
20449;SDS011;10384;51.940;8.432;2022-08-19T14:02:47;3.83;;;3.30;;
20449;SDS011;10384;51.940;8.432;2022-08-19T14:05:16;4.07;;;3.50;;
20449;SDS011;10384;51.940;8.432;2022-08-19T14:07:42;4.37;;;3.17;;
20449;SDS011;10384;51.940;8.432;2022-08-19T14:10:09;3.63;;;2.83;;
20449;SDS011;10384;51.940;8.432;2022-08-19T14:12:36;3.37;;;2.97;;
20449;SDS011;10384;51.940;8.432;2022-08-19T14:15:02;4.57;;;3.17;;
20449;SDS011;10384;51.940;8.432;2022-08-19T14:17:29;3.20;;;2.90;;
20449;SDS011;10384;51.940;8.432;2022-08-19T14:19:58;4.23;;;3.30;;
20449;SDS011;10384;51.940;8.432;2022-08-19T14:22:30;3.50;;;3.20;;
20449;SDS011;10384;51.940;8.432;2022-08-19T14:24:57;4.00;;;3.13;;
20449;SDS011;10384;51.940;8.432;2022-08-19T14:27:23;3.70;;;3.23;;
20449;SDS011;10384;51.940;8.432;2022-08-19T14:29:50;6.07;;;3.13;;
20449;SDS011;10384;51.940;8.432;2022-08-19T14:32:19;5.47;;;3.53;;
20449;SDS011;10384;51.940;8.432;2022-08-19T14:34:47;3.50;;;3.20;;
20449;SDS011;10384;51.940;8.432;2022-08-19T14:37:13;5.13;;;3.47;;
20449;SDS011;10384;51.940;8.432;2022-08-19T14:39:40;4.43;;;3.50;;
20449;SDS011;10384;51.940;8.432;2022-08-19T14:42:07;3.60;;;3.23;;
20449;SDS011;10384;51.940;8.432;2022-08-19T14:44:33;3.63;;;3.33;;
20449;SDS011;10384;51.940;8.432;2022-08-19T14:46:59;3.87;;;3.50;;
20449;SDS011;10384;51.940;8.432;2022-08-19T14:49:25;6.27;;;3.77;;
20449;SDS011;10384;51.940;8.432;2022-08-19T14:51:51;5.07;;;3.63;;
20449;SDS011;10384;51.940;8.432;2022-08-19T14:54:17;5.20;;;3.37;;